createdAt,value
2022-12-25T00:00:09.681Z,101301.53
2022-12-25T00:02:42.747Z,101313.84
2022-12-25T00:05:15.184Z,101313.84
2022-12-25T00:07:44.943Z,101304.25
2022-12-25T00:10:15.058Z,101305.09
2022-12-25T00:12:44.851Z,101299.91
2022-12-25T00:15:14.614Z,101299.91
2022-12-25T00:17:44.358Z,101294.69
2022-12-25T00:20:16.744Z,101285.09
2022-12-25T00:22:46.473Z,101283.47
2022-12-25T00:25:16.192Z,101284.31
2022-12-25T00:27:45.940Z,101283.31
2022-12-25T00:30:16.121Z,101294.63
2022-12-25T00:32:45.842Z,101292.75
2022-12-25T00:35:18.326Z,101280.44
2022-12-25T00:37:48.042Z,101287.41
2022-12-25T00:40:17.775Z,101288.25
2022-12-25T00:42:47.518Z,101289.88
2022-12-25T00:45:17.319Z,101286.28
2022-12-25T00:47:47.148Z,101283.56
2022-12-25T00:50:19.605Z,101283.50
2022-12-25T00:52:49.345Z,101282.59
2022-12-25T00:55:19.244Z,101298.22
2022-12-25T00:57:49.034Z,101292.00
2022-12-25T01:00:19.541Z,101293.72
2022-12-25T01:02:49.319Z,101304.19
2022-12-25T01:05:21.890Z,101298.84
2022-12-25T01:07:51.623Z,101284.78
2022-12-25T01:10:24.993Z,101291.84
2022-12-25T01:12:55.159Z,101275.16
2022-12-25T01:15:25.009Z,101282.91
2022-12-25T01:17:54.758Z,101296.72
2022-12-25T01:20:27.140Z,101298.44
2022-12-25T01:22:57.191Z,101307.94
2022-12-25T01:25:26.888Z,101303.53
2022-12-25T01:27:56.605Z,101303.63
2022-12-25T01:30:26.360Z,101308.84
2022-12-25T01:32:56.102Z,101309.75
2022-12-25T01:35:28.603Z,101329.84
2022-12-25T01:37:58.393Z,101337.78
2022-12-25T01:40:28.184Z,101333.56
2022-12-25T01:42:57.915Z,101330.00
2022-12-25T01:45:40.783Z,101327.50
2022-12-25T01:48:16.270Z,101332.72
2022-12-25T01:50:51.267Z,101318.81
2022-12-25T01:53:21.102Z,101329.28
2022-12-25T01:55:54.040Z,101325.88
2022-12-25T01:58:24.565Z,101326.03
2022-12-25T02:00:54.677Z,101320.94
2022-12-25T02:03:25.447Z,101309.72
2022-12-25T02:05:58.298Z,101323.00
2022-12-25T02:08:28.374Z,101319.66
2022-12-25T02:10:58.229Z,101308.44
2022-12-25T02:13:28.045Z,101310.34
2022-12-25T02:16:08.831Z,101311.38
2022-12-25T02:18:47.533Z,101308.91
2022-12-25T02:21:47.774Z,101309.16
2022-12-25T02:24:48.477Z,101314.50
2022-12-25T02:27:26.935Z,101316.38
2022-12-25T02:30:05.024Z,101311.13
2022-12-25T02:32:42.926Z,101306.84
2022-12-25T02:35:15.666Z,101306.94
2022-12-25T02:37:51.061Z,101309.72
2022-12-25T02:40:22.580Z,101309.97
2022-12-25T02:43:09.457Z,101309.16
2022-12-25T02:45:59.347Z,101303.09
2022-12-25T02:48:46.474Z,101291.78
2022-12-25T02:51:31.466Z,101297.94
2022-12-25T02:54:16.700Z,101289.25
2022-12-25T02:57:02.107Z,101291.03
2022-12-25T02:59:51.242Z,101297.34
2022-12-25T03:02:39.188Z,101279.91
2022-12-25T03:05:25.874Z,101280.00
2022-12-25T03:07:55.973Z,101275.72
2022-12-25T03:10:38.959Z,101275.88
2022-12-25T03:13:15.251Z,101275.94
2022-12-25T03:15:58.543Z,101263.84
2022-12-25T03:18:34.157Z,101250.81
2022-12-25T03:21:16.826Z,101249.25
2022-12-25T03:24:09.914Z,101251.84
2022-12-25T03:26:52.335Z,101245.88
2022-12-25T03:29:34.334Z,101241.63
2022-12-25T03:32:13.159Z,101242.66
2022-12-25T03:35:08.455Z,101244.53
2022-12-25T03:38:03.491Z,101238.47
2022-12-25T03:40:53.900Z,101241.16
2022-12-25T03:43:48.723Z,101225.50
2022-12-25T03:46:32.933Z,101216.81
2022-12-25T03:49:22.708Z,101213.44
2022-12-25T03:52:09.483Z,101210.06
2022-12-25T03:54:54.084Z,101208.28
2022-12-25T03:57:36.235Z,101200.59
2022-12-25T04:00:19.103Z,101197.97
2022-12-25T04:03:01.274Z,101197.22
2022-12-25T04:05:43.422Z,101190.22
2022-12-25T04:08:28.162Z,101187.63
2022-12-25T04:11:10.254Z,101184.22
2022-12-25T04:13:52.386Z,101179.88
2022-12-25T04:16:34.489Z,101188.72
2022-12-25T04:19:16.687Z,101173.03
2022-12-25T04:21:58.789Z,101183.59
2022-12-25T04:24:43.537Z,101188.97
2022-12-25T04:27:25.711Z,101196.03
2022-12-25T04:30:07.827Z,101191.59
2022-12-25T04:32:49.959Z,101184.66
2022-12-25T04:35:32.080Z,101196.94
2022-12-25T04:38:01.946Z,101195.28
2022-12-25T04:40:34.289Z,101189.34
2022-12-25T04:43:04.043Z,101203.38
2022-12-25T04:45:33.798Z,101215.66
2022-12-25T04:48:03.756Z,101223.66
2022-12-25T04:50:33.494Z,101221.91
2022-12-25T04:53:03.219Z,101232.50
2022-12-25T04:55:35.556Z,101225.53
2022-12-25T04:58:05.315Z,101221.25
2022-12-25T05:00:35.015Z,101216.16
2022-12-25T05:03:04.790Z,101211.88
2022-12-25T05:05:34.635Z,101217.22
2022-12-25T05:08:05.940Z,101220.78
2022-12-25T05:10:38.238Z,101221.75
2022-12-25T05:13:08.005Z,101215.59
2022-12-25T05:15:37.772Z,101214.84
2022-12-25T05:18:07.806Z,101217.56
2022-12-25T05:20:40.181Z,101215.91
2022-12-25T05:23:10.474Z,101202.84
2022-12-25T05:25:44.419Z,101204.72
2022-12-25T05:28:14.135Z,101209.22
2022-12-25T05:30:44.096Z,101210.19
2022-12-25T05:33:13.970Z,101201.47
2022-12-25T05:35:43.951Z,101209.44
2022-12-25T05:38:13.672Z,101204.31
2022-12-25T05:40:46.022Z,101205.19
2022-12-25T05:43:15.766Z,101210.44
2022-12-25T05:45:45.491Z,101211.38
2022-12-25T05:48:15.249Z,101206.13
2022-12-25T05:50:45.270Z,101207.03
2022-12-25T05:53:16.860Z,101204.44
2022-12-25T05:55:49.246Z,101200.13
2022-12-25T05:58:19.040Z,101208.03
2022-12-25T06:00:48.744Z,101198.44
2022-12-25T06:03:18.573Z,101202.00
2022-12-25T06:05:48.330Z,101202.00
2022-12-25T06:08:18.051Z,101208.19
2022-12-25T06:10:50.773Z,101202.94
2022-12-25T06:13:20.495Z,101184.56
2022-12-25T06:15:50.333Z,101181.13
2022-12-25T06:18:20.035Z,101183.81
2022-12-25T06:20:49.841Z,101186.41
2022-12-25T06:23:19.638Z,101185.53
2022-12-25T06:25:52.977Z,101180.28
2022-12-25T06:28:22.697Z,101181.19
2022-12-25T06:30:52.511Z,101173.25
2022-12-25T06:33:22.247Z,101175.88
2022-12-25T06:35:51.962Z,101182.09
2022-12-25T06:38:21.761Z,101175.03
2022-12-25T06:40:54.122Z,101174.28
2022-12-25T06:43:23.875Z,101173.38
2022-12-25T06:45:53.724Z,101180.41
2022-12-25T06:48:23.512Z,101182.16
2022-12-25T06:50:53.227Z,101184.09
2022-12-25T06:53:24.183Z,101177.13
2022-12-25T06:55:56.530Z,101180.72
2022-12-25T06:58:26.268Z,101167.66
2022-12-25T07:00:56.040Z,101165.94
2022-12-25T07:03:25.890Z,101172.97
2022-12-25T07:05:55.627Z,101171.22
2022-12-25T07:08:25.342Z,101176.66
2022-12-25T07:10:58.282Z,101183.75
2022-12-25T07:13:27.991Z,101170.63
2022-12-25T07:15:58.929Z,101174.19
2022-12-25T07:18:29.423Z,101160.25
2022-12-25T07:20:59.622Z,101158.53
2022-12-25T07:23:29.823Z,101161.06
2022-12-25T07:26:03.731Z,101155.97
2022-12-25T07:28:34.465Z,101157.69
2022-12-25T07:31:05.788Z,101153.34
2022-12-25T07:33:36.223Z,101148.91
2022-12-25T07:36:07.797Z,101148.91
2022-12-25T07:38:42.543Z,101153.19
2022-12-25T07:41:15.873Z,101158.44
2022-12-25T07:43:45.731Z,101156.66
2022-12-25T07:46:15.643Z,101161.16
2022-12-25T07:48:45.505Z,101170.75
2022-12-25T07:51:17.093Z,101173.50
2022-12-25T07:53:46.915Z,101178.75
2022-12-25T07:56:22.367Z,101171.84
2022-12-25T07:58:52.466Z,101174.59
2022-12-25T08:01:24.407Z,101184.34
2022-12-25T08:03:55.888Z,101184.44
2022-12-25T08:06:30.035Z,101188.00
2022-12-25T08:09:00.573Z,101186.28
2022-12-25T08:11:33.006Z,101192.50
2022-12-25T08:14:02.728Z,101196.03
2022-12-25T08:16:32.521Z,101194.28
2022-12-25T08:19:02.426Z,101192.50
2022-12-25T08:21:32.592Z,101190.78
2022-12-25T08:24:03.286Z,101185.56
2022-12-25T08:26:35.690Z,101184.81
2022-12-25T08:29:05.451Z,101190.97
2022-12-25T08:31:39.430Z,101200.63
2022-12-25T08:34:12.917Z,101203.34
2022-12-25T08:36:42.712Z,101199.78
2022-12-25T08:39:12.530Z,101205.97
2022-12-25T08:41:44.893Z,101203.38
2022-12-25T08:44:15.446Z,101196.41
2022-12-25T08:46:45.253Z,101179.75
2022-12-25T08:49:15.094Z,101187.72
2022-12-25T08:51:47.437Z,101194.69
2022-12-25T08:54:17.416Z,101203.50
2022-12-25T08:56:49.998Z,101204.50
2022-12-25T08:59:19.822Z,101200.13
2022-12-25T09:01:49.686Z,101196.69
2022-12-25T09:04:19.553Z,101201.09
2022-12-25T09:06:50.357Z,101197.56
2022-12-25T09:09:20.143Z,101201.97
2022-12-25T09:11:52.577Z,101216.94
2022-12-25T09:14:22.312Z,101209.88
2022-12-25T09:16:53.116Z,101209.06
2022-12-25T09:19:23.025Z,101205.53
2022-12-25T09:21:52.926Z,101209.19
2022-12-25T09:24:22.948Z,101195.97
2022-12-25T09:26:55.363Z,101194.38
2022-12-25T09:29:25.197Z,101176.97
2022-12-25T09:31:55.021Z,101190.16
2022-12-25T09:34:24.845Z,101193.75
2022-12-25T09:36:54.733Z,101187.72
2022-12-25T09:39:24.866Z,101194.72
2022-12-25T09:42:01.602Z,101179.03
2022-12-25T09:44:33.777Z,101169.47
2022-12-25T09:47:08.079Z,101165.16
2022-12-25T09:49:43.079Z,101176.56
2022-12-25T09:52:16.786Z,101177.50
2022-12-25T09:54:54.638Z,101177.53
2022-12-25T09:57:28.516Z,101165.28
2022-12-25T09:59:59.449Z,101176.72
2022-12-25T10:02:58.431Z,101185.53
2022-12-25T10:05:47.436Z,101181.13
2022-12-25T10:08:32.601Z,101174.13
2022-12-25T10:11:13.163Z,101168.84
2022-12-25T10:14:05.923Z,101166.22
2022-12-25T10:16:46.204Z,101157.38
2022-12-25T10:19:31.198Z,101141.59
2022-12-25T10:22:04.991Z,101142.50
2022-12-25T10:24:39.914Z,101138.13
2022-12-25T10:27:17.679Z,101133.75
2022-12-25T10:29:55.577Z,101139.09
2022-12-25T10:32:25.815Z,101148.72
2022-12-25T10:34:55.580Z,101163.63
2022-12-25T10:37:25.324Z,101164.53
2022-12-25T10:39:55.075Z,101154.94
2022-12-25T10:42:38.850Z,101151.38
2022-12-25T10:45:12.509Z,101141.81
2022-12-25T10:47:44.568Z,101145.44
2022-12-25T10:50:21.328Z,101133.16
2022-12-25T10:52:59.068Z,101139.28
2022-12-25T10:55:29.937Z,101148.06
2022-12-25T10:58:02.143Z,101139.22
2022-12-25T11:00:36.197Z,101137.56
2022-12-25T11:03:06.160Z,101135.78
2022-12-25T11:05:37.950Z,101148.19
2022-12-25T11:08:23.847Z,101140.38
2022-12-25T11:10:59.790Z,101128.03
2022-12-25T11:13:32.369Z,101125.41
2022-12-25T11:16:10.756Z,101114.03
2022-12-25T11:18:49.808Z,101107.09
2022-12-25T11:21:22.115Z,101094.81
2022-12-25T11:23:53.730Z,101093.97
2022-12-25T11:26:23.553Z,101093.06
2022-12-25T11:28:55.137Z,101098.38
2022-12-25T11:31:35.476Z,101092.22
2022-12-25T11:34:09.563Z,101081.78
2022-12-25T11:36:46.747Z,101069.53
2022-12-25T11:39:27.421Z,101055.63
2022-12-25T11:42:02.617Z,101053.00
2022-12-25T11:44:41.813Z,101045.19
2022-12-25T11:47:20.262Z,101052.16
2022-12-25T11:50:00.144Z,101043.44
2022-12-25T11:52:34.738Z,101046.97
2022-12-25T11:55:10.355Z,101042.59
2022-12-25T11:57:42.191Z,101043.44
2022-12-25T12:00:17.633Z,101034.78
2022-12-25T12:02:57.465Z,101036.63
2022-12-25T12:05:36.767Z,101036.72
2022-12-25T12:08:08.585Z,101039.38
2022-12-25T12:10:50.477Z,101021.06
2022-12-25T12:13:34.658Z,101023.72
2022-12-25T12:16:06.118Z,101021.09
2022-12-25T12:18:38.625Z,101029.94
2022-12-25T12:21:12.749Z,101022.13
2022-12-25T12:23:54.455Z,101026.53
2022-12-25T12:26:26.859Z,101030.03
2022-12-25T12:28:59.615Z,101022.16
2022-12-25T12:31:41.327Z,101028.34
2022-12-25T12:34:25.042Z,101024.78
2022-12-25T12:36:59.203Z,101014.34
2022-12-25T12:39:32.323Z,101013.59
2022-12-25T12:42:02.280Z,101007.44
2022-12-25T12:44:36.938Z,101006.66
2022-12-25T12:47:06.772Z,101005.81
2022-12-25T12:49:39.151Z,100997.13
2022-12-25T12:52:23.777Z,100998.00
2022-12-25T12:55:00.108Z,101006.06
2022-12-25T12:57:32.942Z,100991.22
2022-12-25T13:00:10.552Z,100990.41
2022-12-25T13:03:07.676Z,101001.03
2022-12-25T13:05:43.667Z,101005.31
2022-12-25T13:08:33.410Z,100998.38
2022-12-25T13:11:12.683Z,100987.88
2022-12-25T13:13:44.917Z,100972.94
2022-12-25T13:16:24.103Z,100967.72
2022-12-25T13:18:55.832Z,100970.44
2022-12-25T13:21:34.932Z,100971.31
2022-12-25T13:24:09.102Z,100967.00
2022-12-25T13:26:39.409Z,100961.81
2022-12-25T13:29:11.614Z,100953.06
2022-12-25T13:31:43.987Z,100961.91
2022-12-25T13:34:25.321Z,100950.56
2022-12-25T13:36:58.864Z,100945.28
2022-12-25T13:39:29.627Z,100948.03
2022-12-25T13:42:05.671Z,100939.34
2022-12-25T13:44:45.735Z,100942.94
2022-12-25T13:47:29.749Z,100942.09
2022-12-25T13:50:01.247Z,100930.66
2022-12-25T13:52:38.245Z,100933.38
2022-12-25T13:55:15.430Z,100930.72
2022-12-25T13:57:48.562Z,100928.09
2022-12-25T14:00:23.701Z,100921.94
2022-12-25T14:02:54.689Z,100928.16
2022-12-25T14:05:34.709Z,100931.69
2022-12-25T14:08:20.981Z,100933.47
2022-12-25T14:10:54.355Z,100926.47
2022-12-25T14:13:28.791Z,100931.78
2022-12-25T14:15:59.704Z,100920.38
2022-12-25T14:18:30.401Z,100923.03
2022-12-25T14:21:03.038Z,100925.72
2022-12-25T14:23:44.826Z,100919.69
2022-12-25T14:26:18.967Z,100914.34
2022-12-25T14:28:51.791Z,100914.34
2022-12-25T14:31:22.931Z,100931.09
2022-12-25T14:33:54.581Z,100922.25
2022-12-25T14:36:24.973Z,100930.13
2022-12-25T14:39:02.537Z,100916.09
2022-12-25T14:41:38.289Z,100907.31
2022-12-25T14:44:28.128Z,100911.72
2022-12-25T14:47:07.757Z,100909.09
2022-12-25T14:49:37.663Z,100915.22
2022-12-25T14:52:14.680Z,100917.78
2022-12-25T14:54:51.587Z,100927.50
2022-12-25T14:57:28.509Z,100923.09
2022-12-25T15:00:05.459Z,100921.44
2022-12-25T15:02:43.460Z,100915.22
2022-12-25T15:05:35.225Z,100915.22
2022-12-25T15:08:22.334Z,100918.72
2022-12-25T15:11:00.301Z,100915.22
2022-12-25T15:13:31.604Z,100919.59
2022-12-25T15:16:05.463Z,100917.84
2022-12-25T15:18:40.427Z,100914.31
2022-12-25T15:21:17.063Z,100915.22
2022-12-25T15:23:47.423Z,100927.50
2022-12-25T15:26:19.980Z,100919.69
2022-12-25T15:28:50.093Z,100917.00
2022-12-25T15:31:25.381Z,100917.00
2022-12-25T15:33:56.063Z,100927.50
2022-12-25T15:36:26.940Z,100924.84
2022-12-25T15:38:57.605Z,100923.97
2022-12-25T15:41:44.569Z,100928.38
2022-12-25T15:44:15.439Z,100925.72
2022-12-25T15:46:46.146Z,100931.00
2022-12-25T15:49:17.153Z,100929.25
2022-12-25T15:51:47.766Z,100931.00
2022-12-25T15:54:17.617Z,100925.72
2022-12-25T15:56:53.106Z,100924.88
2022-12-25T15:59:23.853Z,100924.00
2022-12-25T16:01:55.218Z,100921.38
2022-12-25T16:04:26.631Z,100912.66
2022-12-25T16:06:57.672Z,100925.81
2022-12-25T16:09:28.076Z,100917.91
2022-12-25T16:12:00.548Z,100914.34
2022-12-25T16:14:30.372Z,100924.00
2022-12-25T16:17:00.255Z,100925.72
2022-12-25T16:19:30.183Z,100936.25
2022-12-25T16:22:00.138Z,100925.63
2022-12-25T16:24:30.023Z,100926.47
2022-12-25T16:27:03.579Z,100919.50
2022-12-25T16:29:33.411Z,100911.53
2022-12-25T16:32:03.369Z,100919.34
2022-12-25T16:34:33.406Z,100927.22
2022-12-25T16:37:03.375Z,100917.47
2022-12-25T16:39:33.238Z,100925.31
2022-12-25T16:42:05.844Z,100927.13
2022-12-25T16:44:39.225Z,100924.41
2022-12-25T16:47:09.164Z,100920.91
2022-12-25T16:49:39.154Z,100919.09
2022-12-25T16:52:09.055Z,100912.91
2022-12-25T16:54:38.928Z,100917.31
2022-12-25T16:57:11.639Z,100914.69
2022-12-25T16:59:41.821Z,100901.53
2022-12-25T17:02:16.963Z,100896.28
2022-12-25T17:04:47.620Z,100899.88
2022-12-25T17:07:19.454Z,100892.84
2022-12-25T17:09:51.133Z,100886.72
2022-12-25T17:12:23.552Z,100885.84
2022-12-25T17:14:53.439Z,100886.75
2022-12-25T17:17:23.266Z,100880.69
2022-12-25T17:19:53.088Z,100869.28
2022-12-25T17:22:22.896Z,100870.19
2022-12-25T17:24:52.717Z,100866.66
2022-12-25T17:27:25.138Z,100870.06
2022-12-25T17:29:54.946Z,100877.09
2022-12-25T17:32:24.774Z,100875.34
2022-12-25T17:34:54.833Z,100871.81
2022-12-25T17:37:25.282Z,100860.41
2022-12-25T17:39:55.140Z,100864.78
2022-12-25T17:42:27.628Z,100854.31
2022-12-25T17:44:57.531Z,100848.16
2022-12-25T17:47:27.376Z,100844.63
2022-12-25T17:49:57.285Z,100842.81
2022-12-25T17:52:27.151Z,100843.75
2022-12-25T17:54:56.990Z,100849.84
2022-12-25T17:57:29.471Z,100841.94
2022-12-25T17:59:59.356Z,100846.25
2022-12-25T18:02:30.990Z,100842.78
2022-12-25T18:05:01.081Z,100847.09
2022-12-25T18:07:30.920Z,100831.31
2022-12-25T18:10:00.756Z,100836.59
2022-12-25T18:12:33.158Z,100836.66
2022-12-25T18:15:03.028Z,100834.81
2022-12-25T18:17:32.923Z,100835.69
2022-12-25T18:20:02.792Z,100833.88
2022-12-25T18:22:32.648Z,100834.81
2022-12-25T18:25:02.519Z,100837.38
2022-12-25T18:27:34.964Z,100843.53
2022-12-25T18:30:05.100Z,100838.22
2022-12-25T18:32:34.968Z,100849.63
2022-12-25T18:35:05.014Z,100847.81
2022-12-25T18:37:39.995Z,100845.16
2022-12-25T18:40:11.945Z,100833.75
2022-12-25T18:42:46.723Z,100828.44
2022-12-25T18:45:17.981Z,100837.16
2022-12-25T18:47:48.393Z,100828.34
2022-12-25T18:50:18.644Z,100833.59
2022-12-25T18:52:51.595Z,100826.53
2022-12-25T18:55:23.203Z,100817.69
2022-12-25T18:57:55.855Z,100821.25
2022-12-25T19:00:26.240Z,100816.88
2022-12-25T19:02:59.296Z,100809.78
2022-12-25T19:05:29.366Z,100810.66
2022-12-25T19:07:59.195Z,100809.78
2022-12-25T19:10:29.051Z,100803.50
2022-12-25T19:13:01.579Z,100796.47
2022-12-25T19:15:31.436Z,100806.03
2022-12-25T19:18:01.307Z,100799.00
2022-12-25T19:20:31.303Z,100801.53
2022-12-25T19:23:01.201Z,100803.13
2022-12-25T19:25:31.251Z,100807.41
2022-12-25T19:28:04.068Z,100797.69
2022-12-25T19:30:34.010Z,100807.31
2022-12-25T19:33:03.922Z,100809.91
2022-12-25T19:35:33.916Z,100813.34
2022-12-25T19:38:03.840Z,100810.72
2022-12-25T19:40:33.973Z,100814.25
2022-12-25T19:43:06.818Z,100818.69
2022-12-25T19:45:36.774Z,100813.47
2022-12-25T19:48:07.464Z,100812.63
2022-12-25T19:50:39.128Z,100816.09
2022-12-25T19:53:09.111Z,100812.66
2022-12-25T19:55:39.049Z,100802.13
2022-12-25T19:58:11.552Z,100803.09
2022-12-25T20:00:42.846Z,100803.09
2022-12-25T20:03:14.383Z,100796.97
2022-12-25T20:05:47.640Z,100805.75
2022-12-25T20:08:17.556Z,100797.84
2022-12-25T20:10:47.625Z,100798.72
2022-12-25T20:13:20.395Z,100805.75
2022-12-25T20:15:50.654Z,100803.09
2022-12-25T20:18:21.243Z,100803.13
2022-12-25T20:20:51.424Z,100802.22
2022-12-25T20:23:21.428Z,100805.72
2022-12-25T20:25:51.316Z,100803.97
2022-12-25T20:28:23.817Z,100808.34
2022-12-25T20:30:53.728Z,100801.25
2022-12-25T20:33:23.697Z,100810.91
2022-12-25T20:35:55.264Z,100813.47
2022-12-25T20:38:24.959Z,100815.25
2022-12-25T20:41:26.199Z,100814.38
2022-12-25T20:43:55.788Z,100814.38
2022-12-25T20:46:25.685Z,100816.94
2022-12-25T20:48:55.634Z,100820.41
2022-12-25T20:51:27.103Z,100816.06
2022-12-25T20:53:57.614Z,100823.88
2022-12-25T20:56:30.372Z,100820.28
2022-12-25T20:59:03.549Z,100819.34
2022-12-25T21:01:33.873Z,100828.94
2022-12-25T21:04:03.885Z,100819.22
2022-12-25T21:06:33.709Z,100819.19
2022-12-25T21:09:03.680Z,100814.84
2022-12-25T21:11:33.595Z,100807.84
2022-12-25T21:14:06.001Z,100808.78
2022-12-25T21:16:35.766Z,100805.31
2022-12-25T21:19:05.691Z,100808.00
2022-12-25T21:21:36.104Z,100808.81
2022-12-25T21:24:06.020Z,100814.94
2022-12-25T21:26:35.801Z,100823.66
2022-12-25T21:29:08.286Z,100820.13
2022-12-25T21:31:58.235Z,100832.38
2022-12-25T21:34:25.561Z,100829.75
2022-12-25T21:36:55.461Z,100828.00
2022-12-25T21:39:25.867Z,100831.56
2022-12-25T21:41:55.792Z,100834.19
2022-12-25T21:44:28.519Z,100837.63
2022-12-25T21:46:58.366Z,100834.03
2022-12-25T21:49:40.566Z,100837.53
2022-12-25T21:52:10.658Z,100825.19
2022-12-25T21:54:40.375Z,100827.81
2022-12-25T21:57:10.192Z,100825.25
2022-12-25T21:59:42.603Z,100823.44
2022-12-25T22:02:13.479Z,100823.44
2022-12-25T22:04:43.488Z,100821.66
2022-12-25T22:07:19.034Z,100827.69
2022-12-25T22:09:49.652Z,100826.81
2022-12-25T22:12:34.456Z,100835.47
2022-12-25T22:15:09.800Z,100826.66
2022-12-25T22:17:54.414Z,100825.78
2022-12-25T22:20:26.754Z,100824.97
2022-12-25T22:22:56.872Z,100825.91
2022-12-25T22:25:27.382Z,100829.44
2022-12-25T22:27:57.496Z,100834.63
2022-12-25T22:30:32.031Z,100833.91
2022-12-25T22:33:02.920Z,100829.47
2022-12-25T22:35:32.696Z,100827.72
2022-12-25T22:38:02.409Z,100830.34
2022-12-25T22:40:32.221Z,100833.84
2022-12-25T22:43:01.964Z,100838.22
2022-12-25T22:45:34.326Z,100829.44
2022-12-25T22:48:04.057Z,100827.63
2022-12-25T22:50:33.746Z,100834.63
2022-12-25T22:53:03.466Z,100826.69
2022-12-25T22:55:33.240Z,100821.38
2022-12-25T22:58:03.044Z,100827.47
2022-12-25T23:00:39.728Z,100825.75
2022-12-25T23:03:12.776Z,100822.22
2022-12-25T23:05:42.655Z,100822.22
2022-12-25T23:08:12.381Z,100822.28
2022-12-25T23:10:42.094Z,100816.16
2022-12-25T23:13:24.515Z,100812.66
2022-12-25T23:15:56.914Z,100814.50
2022-12-25T23:18:39.087Z,100811.88
2022-12-25T23:21:21.304Z,100815.38
2022-12-25T23:24:03.444Z,100812.81
2022-12-25T23:26:33.186Z,100810.13
2022-12-25T23:29:15.360Z,100814.50
2022-12-25T23:31:53.695Z,100811.88
2022-12-25T23:34:24.363Z,100809.22
2022-12-25T23:36:54.112Z,100810.91
2022-12-25T23:39:23.846Z,100810.09
2022-12-25T23:41:53.868Z,100810.09
2022-12-25T23:44:23.908Z,100823.22
2022-12-25T23:46:56.912Z,100817.09
2022-12-25T23:49:28.273Z,100816.06
2022-12-25T23:51:58.337Z,100807.28
2022-12-25T23:54:31.435Z,100801.25
2022-12-25T23:57:01.955Z,100800.41
2022-12-25T23:59:33.285Z,100783.75
